OISF  Fasa  Airport

Fasa, Iran

Add Bookmark
ICAO OISF
IATA FAZ
Type Airport
Status Operational
Latitude
28° 53' 30" N
28.891800
Longitude
53° 43' 23" E
53.723301
Local (DST + 5) UTC (GMT + 4)
Feb 6, 2016 02:50 Feb 6, 2016 11:20
Sunrise-Sunset Local UTC
Begin Civil Twilight 06:14 02:44
Sunrise 06:39 03:09
Sunset 05:38 14:08
End Civil Twilight 06:03 14:33
VFR
VFR
MVFR
MVFR
IFR
IFR
LIFR
LIFR
Unknown
Unavailable

Current Weather

METAR Observed VFR
OISF 061100Z 16012KT CAVOK 19/M10 Q1017 Sat, Feb 6, 2016 @ 11:00 UTC
(20 Minutes ago)
Visual Flight Rules
Wind Visibility Conditions
160° at 12 knots (22 kph) 10 km or more
  • No significant weather
Temperatures Readings Precipitation
Current Temp
19°C
66°F
Dewpoint
-10°C
14°F
Humidity 13%
Altimeter 30.03" Hg
Sea Level Pressure 1,017 mb
Field Elevation
1,383 m
4,537 ft
None Recorded
-
-

CheckWX.com is intended as a tool to help pilots better visualize weather data. It is not intended as a substitute for an official weather briefing obtained from a Flight Service Station. CheckWX.com does not meet the FAA requirements for an official pre-flight weather briefing. Therefore, it's important that pilots still call and obtain an official FSS pre-flight weather briefing.

© 2007-2016 CheckWX.com
11:20:35 UTC